Historique des mesures à Cassis (13260), France
Quotidien Résumé Aout 9, 2017 Unités:  Métrique    US   Métrique/US
« Précédent (Jour)
Suivant (Jour) »
Quotidien Hebdomadaire Mensuel Annuel Période au choix
  Maximum: Minimum: Moyenne:
Température: TemperatureC °C 19.9 °C 23.2 °C
Point de rosée: DewpointC °C 9.9 °C 11.9 °C
Humidité: Humidity % 34 % 47 %
Vitesse du vent: 0 km/h 9.3 km/h 20.3 km/h
Rafales: 0 km/h - -
Vent:- - South
Pression: PressurehPa hPa 1009.0 hPa -
Précipitations: 0.0 mm    
Historical Graphs
 
 
Mesures pour : Aout 9, 2017
Heure Temperature Point de rosée Pression Vent Vitesse du vent Rafales Humidité Pluie (par heure) Conditions
TemperatureC °C DewpointC °C PressurehPa hPa Calm     Humidity % HourlyPrecipMM mm SoftwareType W/m2
00:11 23.9 °C 14.3 °C 1009.4 hPa North 15.6 km/h 23 km/h 55 % 0.0 mm open2300-1.11 W/m2
01:11 23.7 °C 13.0 °C 1009.7 hPa North 11.6 km/h 18.7 km/h 51 % 0.0 mm open2300-1.11 W/m2
02:11 22.9 °C 13.6 °C 1009.7 hPa WNW 14 km/h 14 km/h 56 % 0.0 mm open2300-1.11 W/m2
03:11 22.2 °C 13.5 °C 1009.4 hPa WNW 48.1 km/h 48.1 km/h 58 % 0.0 mm open2300-1.11 W/m2
04:11 21.2 °C 13.6 °C 1009.0 hPa NNE 14 km/h 26.7 km/h 62 % 0.0 mm open2300-1.11 W/m2
06:11 20.2 °C 13.2 °C 1009.0 hPa North 12.2 km/h 27.7 km/h 64 % 0.0 mm open2300-1.11 W/m2
07:11 19.9 °C 12.4 °C 1009.4 hPa North 13.2 km/h 17.4 km/h 62 % 0.0 mm open2300-1.11 W/m2
08:11 23.3 °C 13.2 °C 1009.7 hPa North 15.6 km/h 15.6 km/h 53 % 0.0 mm open2300-1.11 W/m2
09:11 22.3 °C 12.5 °C 1010.0 hPa WNW 9.3 km/h 22 km/h 54 % 0.0 mm open2300-1.11 W/m2
10:11 22.9 °C 12.8 °C 1010.4 hPa WNW 25.4 km/h 25.4 km/h 53 % 0.0 mm open2300-1.11 W/m2
12:11 26.8 °C 10.8 °C 1010.0 hPa NNE 16.9 km/h 16.9 km/h 37 % 0.0 mm open2300-1.11 W/m2
13:11 27.5 °C 11.9 °C 1009.7 hPa NW 11.6 km/h 33.2 km/h 38 % 0.0 mm open2300-1.11 W/m2
14:11 28.5 °C 11.0 °C 1009.7 hPa NNW 10.9 km/h 46.3 km/h 34 % 0.0 mm open2300-1.11 W/m2
15:11 28.9 °C 11.4 °C 1009.7 hPa NNW 54.4 km/h 54.4 km/h 34 % 0.0 mm open2300-1.11 W/m2
16:11 27.4 °C 13.3 °C 1009.7 hPa WNW 51 km/h 51 km/h 42 % 0.0 mm open2300-1.11 W/m2
17:11 26.8 °C 12.4 °C 1010.0 hPa WNW 26.7 km/h 26.7 km/h 41 % 0.0 mm open2300-1.11 W/m2
18:11 25.6 °C 12.7 °C 1010.4 hPa West 14.5 km/h 30.7 km/h 45 % 0.0 mm open2300-1.11 W/m2
19:11 24.8 °C 13.7 °C 1010.0 hPa WNW 15.6 km/h 50.5 km/h 50 % 0.0 mm open2300-1.11 W/m2
20:11 24.2 °C 14.0 °C 1009.7 hPa NW 26.7 km/h 27.2 km/h 53 % 0.0 mm open2300-1.11 W/m2
21:11 24.2 °C 10.4 °C 1009.7 hPa North 19.2 km/h 36.5 km/h 42 % 0.0 mm open2300-1.11 W/m2
22:11 23.6 °C 9.9 °C 1010.0 hPa North 16.9 km/h 27.7 km/h 42 % 0.0 mm open2300-1.11 W/m2
23:11 22.9 °C 9.9 °C 1011.1 hPa NNW 22.5 km/h 27.2 km/h 44 % 0.0 mm open2300-1.11 W/m2
Observations météo à CASSIS
WU-History script by Weather Underground - 1 mb